createdAt,value
2018-09-13T00:01:32.022Z,14.90
2018-09-13T00:06:50.228Z,14.80
2018-09-13T00:12:09.922Z,14.80
2018-09-13T00:17:25.658Z,14.90
2018-09-13T00:22:42.756Z,14.80
2018-09-13T00:27:54.412Z,14.80
2018-09-13T00:33:16.296Z,14.70
2018-09-13T00:38:49.007Z,14.70
2018-09-13T00:44:08.893Z,14.60
2018-09-13T00:49:30.429Z,14.50
2018-09-13T00:54:48.759Z,14.60
2018-09-13T01:00:04.315Z,14.50
2018-09-13T01:16:16.750Z,14.50
2018-09-13T01:21:47.503Z,14.40
2018-09-13T01:26:52.882Z,14.50
2018-09-13T01:31:57.179Z,14.40
2018-09-13T01:37:01.336Z,14.30
2018-09-13T01:42:05.496Z,14.10
2018-09-13T01:47:09.665Z,14.20
2018-09-13T01:52:13.856Z,14.30
2018-09-13T01:57:18.295Z,14.30
2018-09-13T02:02:22.489Z,14.30
2018-09-13T02:07:26.670Z,14.40
2018-09-13T02:12:30.898Z,14.40
2018-09-13T02:17:35.200Z,14.30
2018-09-13T02:22:39.351Z,14.30
2018-09-13T02:27:43.544Z,14.30
2018-09-13T02:32:48.073Z,14.20
2018-09-13T02:37:52.620Z,14.20
2018-09-13T02:42:56.886Z,14.10
2018-09-13T02:48:01.175Z,14.10
2018-09-13T02:53:05.363Z,14.20
2018-09-13T02:58:09.517Z,14.20
2018-09-13T03:03:13.939Z,14.10
2018-09-13T03:08:18.294Z,14.20
2018-09-13T03:13:22.584Z,14.20
2018-09-13T03:18:26.733Z,14.20
2018-09-13T03:23:30.944Z,14.10
2018-09-13T03:28:35.165Z,14.10
2018-09-13T03:33:39.484Z,14.20
2018-09-13T03:38:43.657Z,14.20
2018-09-13T03:43:47.874Z,14.10
2018-09-13T03:48:52.052Z,14.10
2018-09-13T03:53:56.217Z,14.10
2018-09-13T03:59:00.473Z,14.30
2018-09-13T04:04:04.685Z,14.10
2018-09-13T04:09:10.739Z,14.20
2018-09-13T04:14:14.981Z,14.20
2018-09-13T04:19:19.615Z,14.30
2018-09-13T04:24:23.756Z,14.30
2018-09-13T04:29:28.042Z,14.20
2018-09-13T04:34:32.292Z,14.20
2018-09-13T04:39:36.489Z,14.20
2018-09-13T04:44:40.666Z,14.00
2018-09-13T04:49:45.018Z,14.10
2018-09-13T04:54:49.176Z,14.00
2018-09-13T04:59:53.350Z,14.10
2018-09-13T05:04:57.540Z,14.00
2018-09-13T05:10:01.693Z,14.00
2018-09-13T05:15:06.418Z,14.00
2018-09-13T05:20:10.580Z,13.90
2018-09-13T05:25:14.880Z,13.90
2018-09-13T05:30:19.150Z,13.90
2018-09-13T05:35:23.371Z,13.90
2018-09-13T05:40:27.613Z,13.90
2018-09-13T05:45:32.131Z,14.00
2018-09-13T05:50:36.377Z,13.90
2018-09-13T05:55:40.542Z,13.80
2018-09-13T06:00:44.731Z,13.80
2018-09-13T06:05:49.126Z,13.80
2018-09-13T06:10:53.302Z,13.90
2018-09-13T06:15:57.478Z,13.90
2018-09-13T06:21:01.628Z,13.90
2018-09-13T06:26:05.892Z,13.90
2018-09-13T06:31:10.038Z,13.90
2018-09-13T06:36:14.394Z,13.80
2018-09-13T06:41:18.917Z,13.90
2018-09-13T06:46:23.090Z,13.90
2018-09-13T06:51:27.281Z,13.80
2018-09-13T06:56:31.570Z,13.80
2018-09-13T07:01:35.832Z,13.80
2018-09-13T07:06:40.071Z,13.80
2018-09-13T07:11:44.966Z,13.80
2018-09-13T07:16:49.213Z,13.90
2018-09-13T07:21:53.471Z,13.80
2018-09-13T07:26:57.703Z,13.90
2018-09-13T07:32:02.025Z,13.90
2018-09-13T07:37:06.346Z,13.90
2018-09-13T07:42:10.641Z,13.90
2018-09-13T07:47:14.926Z,13.90
2018-09-13T07:52:19.426Z,13.90
2018-09-13T07:57:24.018Z,13.90
2018-09-13T08:02:28.327Z,14.00
2018-09-13T08:07:32.571Z,14.00
2018-09-13T08:12:36.749Z,14.20
2018-09-13T08:17:40.917Z,14.20
2018-09-13T08:22:45.074Z,14.10
2018-09-13T08:27:49.317Z,14.20
2018-09-13T08:32:53.517Z,14.20
2018-09-13T08:37:57.807Z,14.30
2018-09-13T08:43:02.012Z,14.30
2018-09-13T08:48:06.249Z,14.20
2018-09-13T08:53:10.555Z,14.20
2018-09-13T08:58:14.709Z,14.40
2018-09-13T09:03:18.882Z,14.30
2018-09-13T09:08:23.062Z,14.40
2018-09-13T09:13:27.369Z,14.50
2018-09-13T09:18:31.677Z,14.60
2018-09-13T09:23:35.863Z,14.50
2018-09-13T09:28:40.138Z,14.50
2018-09-13T09:33:44.289Z,14.40
2018-09-13T09:38:48.623Z,14.70
2018-09-13T09:43:53.197Z,14.70
2018-09-13T09:48:57.397Z,14.60
2018-09-13T09:54:01.658Z,14.60
2018-09-13T09:59:05.844Z,14.60
2018-09-13T10:04:10.049Z,14.70
2018-09-13T10:09:14.223Z,14.80
2018-09-13T10:14:18.528Z,14.70
2018-09-13T10:19:28.106Z,14.80
2018-09-13T10:24:37.576Z,14.70
2018-09-13T10:29:47.104Z,15.00
2018-09-13T10:34:56.479Z,14.80
2018-09-13T10:40:06.147Z,14.70
2018-09-13T10:45:15.529Z,14.90
2018-09-13T10:50:26.078Z,14.80
2018-09-13T10:55:30.325Z,14.80
2018-09-13T11:00:34.568Z,15.00
2018-09-13T11:05:38.829Z,15.00
2018-09-13T11:10:43.145Z,15.20
2018-09-13T11:15:47.260Z,15.40
2018-09-13T11:20:51.545Z,15.70
2018-09-13T11:25:55.777Z,15.70
2018-09-13T11:31:01.863Z,15.40
2018-09-13T11:36:06.018Z,15.60
2018-09-13T11:41:10.351Z,15.60
2018-09-13T11:46:14.616Z,15.70
2018-09-13T11:51:18.814Z,15.80
2018-09-13T11:56:23.030Z,16.10
2018-09-13T12:01:27.264Z,16.20
2018-09-13T12:06:31.502Z,16.30
2018-09-13T12:11:35.732Z,16.20
2018-09-13T12:16:39.945Z,16.20
2018-09-13T12:21:44.093Z,16.90
2018-09-13T12:26:49.324Z,16.80
2018-09-13T12:31:53.595Z,16.80
2018-09-13T12:36:57.757Z,16.80
2018-09-13T12:42:01.921Z,16.90
2018-09-13T12:47:06.112Z,16.80
2018-09-13T12:52:10.350Z,17.00
2018-09-13T12:57:14.967Z,17.20
2018-09-13T13:02:19.252Z,17.40
2018-09-13T13:07:23.585Z,17.30
2018-09-13T13:12:27.796Z,17.40
2018-09-13T13:17:32.045Z,17.40
2018-09-13T13:22:36.313Z,17.60
2018-09-13T13:27:40.520Z,17.50
2018-09-13T13:32:44.772Z,17.60
2018-09-13T13:37:49.101Z,17.60
2018-09-13T13:42:53.318Z,17.70
2018-09-13T13:47:57.539Z,17.70
2018-09-13T13:53:01.709Z,17.80
2018-09-13T13:58:05.982Z,17.80
2018-09-13T14:03:10.172Z,18.00
2018-09-13T14:08:14.412Z,17.90
2018-09-13T14:13:18.664Z,18.00
2018-09-13T14:18:23.449Z,17.80
2018-09-13T14:23:27.641Z,17.70
2018-09-13T14:28:31.933Z,17.80
2018-09-13T14:33:36.032Z,17.90
2018-09-13T14:38:40.345Z,17.80
2018-09-13T14:43:44.634Z,17.90
2018-09-13T14:48:48.872Z,18.10
2018-09-13T14:53:53.151Z,17.90
2018-09-13T14:58:57.318Z,18.30
2018-09-13T15:04:01.527Z,18.00
2018-09-13T15:09:10.395Z,17.90
2018-09-13T15:14:14.743Z,18.10
2018-09-13T15:19:18.903Z,18.30
2018-09-13T15:24:23.361Z,18.30
2018-09-13T15:29:27.554Z,18.30
2018-09-13T15:34:31.881Z,18.30
2018-09-13T15:39:36.069Z,18.20
2018-09-13T15:44:40.574Z,18.20
2018-09-13T15:49:44.733Z,18.30
2018-09-13T15:54:49.102Z,18.20
2018-09-13T15:59:53.278Z,18.10
2018-09-13T16:04:57.439Z,18.10
2018-09-13T16:10:01.775Z,17.90
2018-09-13T16:15:05.971Z,18.00
2018-09-13T16:20:10.207Z,18.00
2018-09-13T16:25:14.470Z,18.00
2018-09-13T16:30:18.733Z,18.30
2018-09-13T16:35:23.102Z,18.10
2018-09-13T16:40:32.697Z,18.10
2018-09-13T16:45:36.906Z,18.10
2018-09-13T16:50:41.144Z,18.00
2018-09-13T16:55:45.293Z,18.00
2018-09-13T17:00:49.546Z,17.90
2018-09-13T17:05:53.786Z,18.00
2018-09-13T17:10:58.149Z,17.90
2018-09-13T17:16:02.866Z,17.90
2018-09-13T17:21:07.071Z,18.00
2018-09-13T17:26:11.924Z,17.90
2018-09-13T17:31:17.084Z,17.90
2018-09-13T17:36:21.327Z,17.80
2018-09-13T17:41:25.636Z,17.90
2018-09-13T17:46:29.913Z,18.20
2018-09-13T17:51:34.092Z,18.30
2018-09-13T17:56:38.672Z,18.40
2018-09-13T18:01:43.095Z,18.40
2018-09-13T18:06:47.699Z,18.50
2018-09-13T18:11:53.606Z,18.10
2018-09-13T18:16:57.990Z,17.70
2018-09-13T18:22:02.438Z,18.00
2018-09-13T18:27:06.672Z,17.90
2018-09-13T18:32:10.863Z,18.20
2018-09-13T18:37:15.134Z,18.20
2018-09-13T18:42:19.973Z,18.20
2018-09-13T18:47:24.795Z,18.10
2018-09-13T18:52:29.393Z,18.10
2018-09-13T18:57:35.429Z,18.00
2018-09-13T19:02:40.715Z,17.90
2018-09-13T19:07:45.228Z,17.90
2018-09-13T19:12:49.616Z,17.80
2018-09-13T19:17:55.631Z,17.70
2018-09-13T19:23:00.424Z,17.70
2018-09-13T19:28:04.901Z,17.60
2018-09-13T19:33:09.626Z,17.60
2018-09-13T19:38:15.792Z,17.50
2018-09-13T19:43:20.576Z,17.40
2018-09-13T19:48:24.885Z,17.40
2018-09-13T19:53:30.371Z,17.40
2018-09-13T19:58:35.549Z,17.40
2018-09-13T20:03:40.568Z,17.40
2018-09-13T20:08:44.731Z,17.40
2018-09-13T20:13:49.201Z,17.30
2018-09-13T20:18:53.581Z,17.20
2018-09-13T20:23:57.887Z,17.20
2018-09-13T20:29:03.250Z,17.20
2018-09-13T20:34:08.584Z,17.10
2018-09-13T20:39:13.504Z,17.00
2018-09-13T20:44:17.784Z,16.90
2018-09-13T20:49:22.006Z,16.70
2018-09-13T20:54:26.363Z,16.60
2018-09-13T20:59:30.698Z,16.50
2018-09-13T21:04:35.573Z,16.50
2018-09-13T21:09:39.760Z,16.40
2018-09-13T21:14:44.028Z,16.40
2018-09-13T21:19:48.295Z,16.30
2018-09-13T21:24:52.640Z,16.40
2018-09-13T21:29:57.144Z,16.40
2018-09-13T21:35:01.339Z,16.40
2018-09-13T21:40:05.496Z,16.20
2018-09-13T21:45:29.439Z,16.20
2018-09-13T21:50:39.425Z,16.20
2018-09-13T21:56:03.950Z,16.20
2018-09-13T22:01:26.668Z,16.00
2018-09-13T22:06:44.594Z,15.90
2018-09-13T22:12:09.667Z,15.80
2018-09-13T22:17:22.430Z,15.60
2018-09-13T22:22:44.572Z,15.60
2018-09-13T22:27:54.673Z,15.60
2018-09-13T22:33:04.489Z,15.40
2018-09-13T22:38:14.194Z,15.30
2018-09-13T22:43:24.249Z,15.40
2018-09-13T22:48:34.021Z,15.20
2018-09-13T22:53:44.066Z,15.20
2018-09-13T22:58:53.782Z,15.20
2018-09-13T23:04:03.738Z,15.30
2018-09-13T23:09:13.765Z,15.30
2018-09-13T23:14:23.564Z,15.20
2018-09-13T23:19:33.417Z,15.40
2018-09-13T23:24:43.201Z,15.40
2018-09-13T23:29:53.063Z,15.40
2018-09-13T23:35:02.831Z,15.40
2018-09-13T23:40:13.252Z,15.50
2018-09-13T23:45:22.704Z,15.50
2018-09-13T23:50:32.536Z,15.30
2018-09-13T23:55:42.510Z,15.40
